Time;durP1;ratioP1;P1;durP2;ratioP2;P2;SDS_P1;SDS_P2;PMS_P1;PMS_P2;Temp;Humidity;BMP_temperature;BMP_pressure;BME280_temperature;BME280_humidity;BME280_pressure;Samples;Min_cycle;Max_cycle;Signal;HPM_P1;HPM_P2
2023/09/25 00:01:04;;;;;;;11.93;5.22;;;11.90;99.90;;;;;;5064998;28;20025;-74
2023/09/25 00:03:30;;;;;;;8.60;5.50;;;11.90;99.90;;;;;;5064302;28;20482;-76
2023/09/25 00:05:56;;;;;;;6.65;4.80;;;11.90;99.90;;;;;;5064978;28;20052;-73
2023/09/25 00:08:21;;;;;;;6.32;4.80;;;11.90;99.90;;;;;;5063348;28;20052;-74
2023/09/25 00:10:47;;;;;;;7.63;5.32;;;11.80;99.90;;;;;;5063298;28;20036;-75
2023/09/25 00:13:13;;;;;;;7.93;5.18;;;11.80;99.90;;;;;;5064882;28;20025;-74
2023/09/25 00:15:46;;;;;;;7.63;5.45;;;11.80;99.90;;;;;;5063631;28;20405;-75
2023/09/25 00:18:16;;;;;;;7.93;4.70;;;11.80;99.90;;;;;;5063739;28;20068;-73
2023/09/25 00:20:42;;;;;;;12.70;5.63;;;11.80;99.90;;;;;;5064599;28;20093;-76
2023/09/25 00:23:08;;;;;;;6.95;5.38;;;11.70;99.90;;;;;;5063188;28;20374;-75
2023/09/25 00:25:34;;;;;;;9.00;5.25;;;11.80;99.90;;;;;;5064942;28;20036;-74
2023/09/25 00:28:02;;;;;;;8.00;5.10;;;11.70;99.90;;;;;;5064817;28;20029;-74
2023/09/25 00:30:27;;;;;;;7.38;5.40;;;11.80;99.90;;;;;;5063489;28;20060;-77
2023/09/25 00:32:53;;;;;;;9.70;5.10;;;11.80;99.90;;;;;;5063998;28;20461;-74
2023/09/25 00:35:20;;;;;;;10.73;5.35;;;11.80;99.90;;;;;;5062973;28;20044;-75
2023/09/25 00:37:46;;;;;;;7.72;4.75;;;11.80;99.90;;;;;;5062994;28;20025;-74
2023/09/25 00:40:18;;;;;;;6.85;4.90;;;11.80;99.90;;;;;;5063323;28;20059;-75
2023/09/25 00:42:53;;;;;;;8.07;5.80;;;11.80;99.90;;;;;;5062766;28;20017;-77
2023/09/25 00:45:19;;;;;;;10.18;5.57;;;11.80;99.90;;;;;;5063897;28;20409;-75
2023/09/25 00:47:45;;;;;;;10.23;5.82;;;11.90;99.90;;;;;;5064534;28;20021;-76
2023/09/25 00:50:12;;;;;;;10.88;6.30;;;11.80;99.90;;;;;;5063915;28;20033;-76
2023/09/25 00:52:43;;;;;;;8.25;5.93;;;11.80;99.90;;;;;;5064158;28;20021;-74
2023/09/25 00:55:09;;;;;;;9.43;6.45;;;11.80;99.90;;;;;;5062700;28;20032;-76
2023/09/25 00:57:38;;;;;;;8.38;6.38;;;11.70;99.90;;;;;;5063937;28;20017;-75
2023/09/25 01:00:10;;;;;;;9.00;6.00;;;11.70;99.90;;;;;;5062516;28;20032;-75
2023/09/25 01:02:36;;;;;;;10.90;6.32;;;11.60;99.90;;;;;;5064200;28;20107;-74
2023/09/25 01:05:05;;;;;;;8.20;5.80;;;11.50;99.90;;;;;;5062971;28;20553;-76
2023/09/25 01:07:31;;;;;;;11.35;5.90;;;11.60;99.90;;;;;;5062804;28;20029;-74
2023/09/25 01:10:10;;;;;;;7.75;5.72;;;11.50;99.90;;;;;;5062848;28;20029;-75
2023/09/25 01:12:37;;;;;;;7.75;5.88;;;11.50;99.90;;;;;;5062461;28;20032;-75
2023/09/25 01:15:04;;;;;;;9.10;5.53;;;11.50;99.90;;;;;;5063463;28;20032;-75
2023/09/25 01:17:30;;;;;;;10.57;5.60;;;11.50;99.90;;;;;;5079081;28;20028;-74
2023/09/25 01:19:56;;;;;;;9.45;5.63;;;11.50;99.90;;;;;;5062887;28;20097;-74
2023/09/25 01:22:22;;;;;;;10.82;6.50;;;11.50;99.90;;;;;;5062048;28;20079;-75
2023/09/25 01:24:47;;;;;;;27.40;8.05;;;11.40;99.90;;;;;;5062474;28;20117;-74
2023/09/25 01:27:13;;;;;;;6.95;5.28;;;11.30;99.90;;;;;;5062243;28;20031;-74
2023/09/25 01:29:38;;;;;;;9.80;5.97;;;11.30;99.90;;;;;;5063358;28;20021;-77
2023/09/25 01:32:04;;;;;;;7.65;5.85;;;11.30;99.90;;;;;;5062207;28;20013;-77
2023/09/25 01:34:31;;;;;;;8.63;5.82;;;11.20;99.90;;;;;;5063709;28;20054;-76
2023/09/25 01:36:57;;;;;;;9.07;5.78;;;11.20;99.90;;;;;;5063414;28;20045;-74
2023/09/25 01:39:23;;;;;;;8.95;5.70;;;11.10;99.90;;;;;;5063340;28;20135;-74
2023/09/25 01:41:48;;;;;;;10.20;5.93;;;11.10;99.90;;;;;;5063392;28;20383;-74
2023/09/25 01:44:14;;;;;;;10.15;6.20;;;11.00;99.90;;;;;;5061807;28;20025;-74
2023/09/25 01:46:40;;;;;;;9.65;6.38;;;11.00;99.90;;;;;;5061875;28;20033;-74
2023/09/25 01:49:07;;;;;;;8.55;5.93;;;11.00;99.90;;;;;;5061468;28;20024;-74
2023/09/25 01:51:32;;;;;;;9.63;6.20;;;10.90;99.90;;;;;;5063300;28;20023;-74
2023/09/25 01:53:59;;;;;;;9.13;6.20;;;11.00;99.90;;;;;;5063542;28;20043;-75
2023/09/25 01:56:25;;;;;;;9.95;6.63;;;10.90;99.90;;;;;;5061537;28;20553;-75
2023/09/25 01:58:50;;;;;;;10.02;6.35;;;10.90;99.90;;;;;;5062792;28;20372;-74
2023/09/25 02:01:16;;;;;;;9.38;6.47;;;10.80;99.90;;;;;;5061595;28;20657;-77
2023/09/25 02:03:42;;;;;;;10.90;6.43;;;10.90;99.90;;;;;;5061511;28;20052;-74
2023/09/25 02:06:08;;;;;;;10.45;6.30;;;10.80;99.90;;;;;;5061729;28;20051;-74
2023/09/25 02:08:33;;;;;;;10.30;6.50;;;10.80;99.90;;;;;;5061803;28;20110;-75
2023/09/25 02:11:03;;;;;;;10.45;6.40;;;10.70;99.90;;;;;;5062558;28;20079;-75
2023/09/25 02:13:29;;;;;;;7.78;5.80;;;10.70;99.90;;;;;;5062847;28;20021;-75
2023/09/25 02:15:55;;;;;;;8.80;6.38;;;10.70;99.90;;;;;;5063044;28;20125;-74
2023/09/25 02:18:21;;;;;;;8.82;6.13;;;10.70;99.90;;;;;;5061396;28;20028;-74
2023/09/25 02:20:47;;;;;;;7.82;6.03;;;10.70;99.90;;;;;;5061407;28;20029;-73
2023/09/25 02:23:13;;;;;;;9.52;6.47;;;10.80;99.90;;;;;;5061385;28;20052;-75
2023/09/25 02:25:38;;;;;;;9.55;6.45;;;10.80;99.90;;;;;;5060373;28;20083;-73
2023/09/25 02:28:05;;;;;;;12.13;7.20;;;10.80;99.90;;;;;;5062434;28;20051;-73
2023/09/25 02:30:30;;;;;;;11.45;7.13;;;10.80;99.90;;;;;;5060909;28;20136;-77
2023/09/25 02:32:56;;;;;;;9.85;7.05;;;10.90;99.90;;;;;;5061484;28;20045;-74
2023/09/25 02:35:24;;;;;;;14.55;7.00;;;11.00;99.90;;;;;;5061222;28;20063;-76
2023/09/25 02:37:50;;;;;;;9.18;6.75;;;11.00;99.90;;;;;;5061766;28;20361;-73
2023/09/25 02:40:15;;;;;;;10.35;6.78;;;11.00;99.90;;;;;;5062559;28;20482;-73
2023/09/25 02:42:41;;;;;;;13.38;6.88;;;11.00;99.90;;;;;;5061124;28;20089;-74
2023/09/25 02:45:11;;;;;;;10.55;6.95;;;11.00;99.90;;;;;;5061533;28;20052;-76
2023/09/25 02:47:37;;;;;;;12.35;6.70;;;11.00;99.90;;;;;;5060644;28;20021;-76
2023/09/25 02:50:03;;;;;;;9.73;7.07;;;11.00;99.90;;;;;;5062123;28;20025;-74
2023/09/25 02:52:29;;;;;;;10.48;6.68;;;11.10;99.90;;;;;;5061335;28;20986;-74
2023/09/25 02:54:54;;;;;;;11.52;7.18;;;11.00;99.90;;;;;;5061880;28;20040;-74
2023/09/25 02:57:20;;;;;;;12.38;7.00;;;11.10;99.90;;;;;;5061926;28;20029;-74
2023/09/25 02:59:46;;;;;;;10.88;7.20;;;11.00;99.90;;;;;;5061566;28;20040;-78
2023/09/25 03:02:11;;;;;;;8.82;6.40;;;11.10;99.90;;;;;;5061973;28;20021;-75
2023/09/25 03:04:37;;;;;;;11.75;6.28;;;11.10;99.90;;;;;;5061208;28;20040;-76
2023/09/25 03:07:03;;;;;;;10.90;7.00;;;11.00;99.90;;;;;;5060605;28;20021;-76
2023/09/25 03:09:29;;;;;;;9.90;5.95;;;11.10;99.90;;;;;;5062065;28;20506;-76
2023/09/25 03:11:55;;;;;;;10.70;6.22;;;11.10;99.90;;;;;;5061757;28;20025;-74
2023/09/25 03:14:21;;;;;;;8.48;5.43;;;11.10;99.90;;;;;;5062078;28;20035;-76
2023/09/25 03:16:49;;;;;;;8.77;5.55;;;11.10;99.90;;;;;;5060457;28;20147;-76
2023/09/25 03:19:15;;;;;;;9.13;5.65;;;11.10;99.90;;;;;;5060111;28;20040;-75
2023/09/25 03:21:44;;;;;;;8.15;5.20;;;11.10;99.90;;;;;;5060529;28;20029;-76
2023/09/25 03:24:10;;;;;;;9.52;5.72;;;11.10;99.90;;;;;;5061185;28;20035;-75
2023/09/25 03:26:36;;;;;;;12.65;6.13;;;11.10;99.90;;;;;;5057516;28;20037;-75
2023/09/25 03:29:04;;;;;;;9.15;5.70;;;11.00;99.90;;;;;;5059808;28;20093;-73
2023/09/25 03:31:30;;;;;;;10.02;5.78;;;11.10;99.90;;;;;;5060625;28;20028;-75
2023/09/25 03:33:56;;;;;;;10.07;5.75;;;11.10;99.90;;;;;;5060471;28;20092;-74
2023/09/25 03:36:24;;;;;;;9.82;4.93;;;11.10;99.90;;;;;;5060163;28;20076;-75
2023/09/25 03:38:49;;;;;;;13.55;5.95;;;11.10;99.90;;;;;;5059561;28;20037;-74
2023/09/25 03:41:15;;;;;;;11.70;6.13;;;11.10;99.90;;;;;;5060819;28;20025;-75
2023/09/25 03:43:41;;;;;;;11.90;6.40;;;11.20;99.90;;;;;;5061003;28;20040;-72
2023/09/25 03:46:07;;;;;;;10.23;5.88;;;11.10;99.90;;;;;;5060488;28;20088;-73
2023/09/25 03:48:35;;;;;;;13.25;5.75;;;11.10;99.90;;;;;;5061160;28;20025;-74
2023/09/25 03:51:04;;;;;;;7.50;5.15;;;11.10;99.90;;;;;;5060503;28;20064;-76
2023/09/25 03:53:30;;;;;;;9.45;5.75;;;11.10;99.90;;;;;;5059651;28;20029;-77
2023/09/25 03:55:56;;;;;;;9.18;5.60;;;11.10;99.90;;;;;;5060168;28;20032;-75
2023/09/25 03:58:21;;;;;;;11.13;5.43;;;11.10;99.90;;;;;;5060625;28;20532;-73
2023/09/25 04:00:47;;;;;;;9.73;6.03;;;11.00;99.90;;;;;;5060785;28;20088;-72
2023/09/25 04:03:13;;;;;;;9.13;5.60;;;11.10;99.90;;;;;;5061075;28;20043;-75
2023/09/25 04:05:44;;;;;;;9.38;5.55;;;11.10;99.90;;;;;;5060755;28;20052;-74
2023/09/25 04:08:10;;;;;;;9.55;5.70;;;11.10;99.90;;;;;;5058969;28;20067;-74
2023/09/25 04:10:35;;;;;;;8.90;5.55;;;11.10;99.90;;;;;;5059188;28;20017;-74
2023/09/25 04:13:01;;;;;;;11.90;5.85;;;11.10;99.90;;;;;;5059730;28;20058;-74
2023/09/25 04:15:27;;;;;;;8.73;6.00;;;11.10;99.90;;;;;;5059303;28;20021;-75
2023/09/25 04:17:53;;;;;;;7.85;5.57;;;11.10;99.90;;;;;;5060600;28;20055;-74
2023/09/25 04:20:25;;;;;;;7.80;5.57;;;11.00;99.90;;;;;;5059095;28;20044;-75
2023/09/25 04:22:56;;;;;;;11.10;5.70;;;11.00;99.90;;;;;;5058868;28;20025;-74
2023/09/25 04:25:22;;;;;;;10.52;5.40;;;11.00;99.90;;;;;;5060685;28;20102;-75
2023/09/25 04:27:56;;;;;;;11.65;6.20;;;11.00;99.90;;;;;;5060094;28;20072;-74
2023/09/25 04:30:25;;;;;;;9.90;5.20;;;10.90;99.90;;;;;;5060738;28;20033;-73
2023/09/25 04:32:54;;;;;;;9.38;5.25;;;11.00;99.90;;;;;;5058562;28;20029;-73
2023/09/25 04:35:21;;;;;;;10.48;5.68;;;11.00;99.90;;;;;;5059415;28;20031;-74
2023/09/25 04:37:47;;;;;;;7.47;5.20;;;10.90;99.90;;;;;;5058966;28;20506;-73
2023/09/25 04:40:22;;;;;;;8.25;5.50;;;11.00;99.90;;;;;;5058888;28;20039;-73
2023/09/25 04:42:53;;;;;;;7.70;5.28;;;11.00;99.90;;;;;;5060618;28;20032;-74
2023/09/25 04:45:21;;;;;;;8.48;5.38;;;11.00;99.90;;;;;;5062538;28;20037;-74
2023/09/25 04:47:48;;;;;;;11.48;5.72;;;11.00;99.90;;;;;;5060673;28;20036;-76
2023/09/25 04:50:15;;;;;;;9.35;5.38;;;10.90;99.90;;;;;;5063656;28;20025;-73
2023/09/25 04:52:42;;;;;;;16.08;5.70;;;10.90;99.90;;;;;;5063514;28;20052;-74
2023/09/25 04:55:12;;;;;;;8.07;5.45;;;10.90;99.90;;;;;;5061987;28;20063;-72
2023/09/25 04:57:46;;;;;;;8.98;5.90;;;11.00;99.90;;;;;;5063525;28;20103;-76
2023/09/25 05:00:26;;;;;;;8.75;5.93;;;10.90;99.90;;;;;;5062318;28;20029;-73
2023/09/25 05:02:54;;;;;;;8.57;5.85;;;10.90;99.90;;;;;;5062390;28;20155;-74
2023/09/25 05:05:20;;;;;;;9.20;5.90;;;10.90;99.90;;;;;;5062501;28;20068;-75
2023/09/25 05:07:50;;;;;;;7.97;5.68;;;10.90;99.90;;;;;;5061178;28;20024;-72
2023/09/25 05:10:19;;;;;;;9.13;6.00;;;10.90;99.90;;;;;;5062523;28;20039;-73
2023/09/25 05:12:45;;;;;;;10.45;6.03;;;10.90;99.90;;;;;;5063572;28;20458;-73
2023/09/25 05:15:11;;;;;;;8.27;5.68;;;10.90;99.90;;;;;;5062491;28;20025;-74
2023/09/25 05:17:38;;;;;;;11.82;5.93;;;10.90;99.90;;;;;;5062552;28;20138;-72
2023/09/25 05:20:15;;;;;;;9.95;5.43;;;10.90;99.90;;;;;;5062097;28;20525;-73
2023/09/25 05:22:43;;;;;;;11.23;5.50;;;10.90;99.90;;;;;;5061770;28;20040;-74
2023/09/25 05:25:10;;;;;;;9.52;5.32;;;10.90;99.90;;;;;;5063343;28;20087;-73
2023/09/25 05:27:42;;;;;;;7.35;5.47;;;10.90;99.90;;;;;;5063106;28;20051;-73
2023/09/25 05:30:09;;;;;;;15.20;5.80;;;10.90;99.90;;;;;;5058287;28;20025;-73
2023/09/25 05:32:39;;;;;;;8.40;5.65;;;10.90;99.90;;;;;;5059649;28;20025;-73
2023/09/25 05:35:05;;;;;;;11.75;5.88;;;10.90;99.90;;;;;;5063218;28;20017;-74
2023/09/25 05:37:32;;;;;;;8.43;5.25;;;10.90;99.90;;;;;;5062531;28;20053;-73
2023/09/25 05:39:59;;;;;;;10.27;5.97;;;10.90;99.90;;;;;;5063215;28;20024;-73
2023/09/25 05:42:25;;;;;;;11.25;5.60;;;10.90;99.90;;;;;;5063455;28;20032;-73
2023/09/25 05:44:50;;;;;;;10.90;5.40;;;10.90;99.90;;;;;;5061332;28;20037;-72
2023/09/25 05:47:17;;;;;;;10.15;5.32;;;10.90;99.90;;;;;;5063353;28;20025;-73
2023/09/25 05:49:42;;;;;;;8.60;5.72;;;10.90;99.90;;;;;;5063239;28;20091;-73
2023/09/25 05:52:08;;;;;;;7.03;5.10;;;10.90;99.90;;;;;;5060988;28;20687;-73
2023/09/25 05:54:34;;;;;;;8.05;5.57;;;10.90;99.90;;;;;;5063364;28;20021;-74
2023/09/25 05:57:00;;;;;;;9.25;5.13;;;10.90;99.90;;;;;;5061900;28;20036;-73
2023/09/25 05:59:25;;;;;;;10.88;4.97;;;10.90;99.90;;;;;;5061922;28;20032;-73
2023/09/25 06:01:51;;;;;;;8.05;5.55;;;11.00;99.90;;;;;;5061818;28;20107;-73
2023/09/25 06:04:17;;;;;;;9.02;5.55;;;11.00;99.90;;;;;;5063046;28;20880;-73
2023/09/25 06:06:43;;;;;;;7.18;4.68;;;11.00;99.90;;;;;;5062230;28;20025;-72
2023/09/25 06:09:15;;;;;;;10.43;5.55;;;10.90;99.90;;;;;;5062544;28;20116;-73
2023/09/25 06:11:41;;;;;;;8.35;5.60;;;11.00;99.90;;;;;;5062500;28;20028;-72
2023/09/25 06:14:07;;;;;;;10.40;5.65;;;11.10;99.90;;;;;;5062525;28;20029;-72
2023/09/25 06:16:33;;;;;;;10.57;5.38;;;11.10;99.90;;;;;;5062754;28;20028;-73
2023/09/25 06:18:59;;;;;;;8.07;5.55;;;11.10;99.90;;;;;;5061140;28;20055;-73
2023/09/25 06:21:25;;;;;;;8.13;5.40;;;11.10;99.90;;;;;;5063016;28;20032;-73
2023/09/25 06:23:50;;;;;;;8.48;5.57;;;11.10;99.90;;;;;;5061632;28;20024;-73
2023/09/25 06:26:16;;;;;;;9.27;5.65;;;11.20;99.90;;;;;;5062524;28;20045;-72
2023/09/25 06:28:42;;;;;;;8.63;5.65;;;11.20;99.90;;;;;;5062610;28;20017;-72
2023/09/25 06:31:08;;;;;;;8.15;5.72;;;11.20;99.90;;;;;;5061363;28;20038;-73
2023/09/25 06:33:35;;;;;;;10.80;5.40;;;11.30;99.90;;;;;;5059946;28;20028;-73
2023/09/25 06:36:00;;;;;;;8.30;5.68;;;11.30;99.90;;;;;;5062164;28;20045;-74
2023/09/25 06:38:26;;;;;;;10.35;6.15;;;11.30;99.90;;;;;;5060796;28;20024;-74
2023/09/25 06:40:52;;;;;;;7.68;5.30;;;11.40;99.90;;;;;;5061075;28;20027;-73
2023/09/25 06:43:17;;;;;;;9.57;5.43;;;11.40;99.90;;;;;;5062038;28;20121;-72
2023/09/25 06:45:43;;;;;;;9.57;5.72;;;11.50;99.90;;;;;;5061066;28;20048;-72
2023/09/25 06:48:09;;;;;;;9.00;5.38;;;11.60;99.90;;;;;;5060121;28;20036;-70
2023/09/25 06:50:35;;;;;;;10.13;5.43;;;11.60;99.90;;;;;;5062026;28;20021;-73
2023/09/25 06:53:03;;;;;;;12.10;5.75;;;11.60;99.90;;;;;;5061012;28;20029;-73
2023/09/25 06:55:30;;;;;;;9.00;5.28;;;11.70;99.90;;;;;;5061914;28;20023;-73
2023/09/25 06:57:55;;;;;;;8.68;5.30;;;11.80;99.90;;;;;;5062610;28;20049;-70
2023/09/25 07:00:23;;;;;;;10.15;5.65;;;11.90;99.90;;;;;;5061753;28;20496;-72
2023/09/25 07:02:50;;;;;;;8.65;5.53;;;11.90;99.90;;;;;;5061304;28;20020;-70
2023/09/25 07:05:16;;;;;;;11.25;5.60;;;12.00;99.90;;;;;;5060721;28;20037;-70
2023/09/25 07:07:42;;;;;;;10.88;5.47;;;12.00;99.90;;;;;;5061455;28;20442;-71
2023/09/25 07:10:10;;;;;;;10.38;5.30;;;12.10;99.90;;;;;;5059367;28;20025;-72
2023/09/25 07:12:36;;;;;;;6.88;5.13;;;12.20;99.90;;;;;;5061668;28;20067;-73
2023/09/25 07:15:03;;;;;;;10.20;5.20;;;12.30;99.90;;;;;;5061245;28;20120;-71
2023/09/25 07:17:29;;;;;;;8.75;5.10;;;12.40;99.90;;;;;;5060845;28;20021;-72
2023/09/25 07:19:55;;;;;;;12.27;5.72;;;12.40;99.90;;;;;;5061688;28;20036;-71
2023/09/25 07:22:23;;;;;;;9.07;5.15;;;12.50;99.90;;;;;;5061692;28;20021;-72
2023/09/25 07:24:49;;;;;;;10.10;5.22;;;12.60;99.90;;;;;;5059823;28;20043;-72
2023/09/25 07:27:16;;;;;;;7.80;5.18;;;12.60;99.90;;;;;;5060271;28;20112;-72
2023/09/25 07:29:48;;;;;;;8.18;5.53;;;12.70;99.90;;;;;;5061284;28;20025;-71
2023/09/25 07:32:14;;;;;;;8.48;5.18;;;12.80;99.90;;;;;;5060849;28;20021;-71
2023/09/25 07:34:41;;;;;;;9.90;5.10;;;12.90;99.90;;;;;;5061436;28;20608;-71
2023/09/25 07:37:07;;;;;;;8.85;4.70;;;13.00;99.90;;;;;;5059502;28;20045;-71
2023/09/25 07:39:34;;;;;;;9.32;5.00;;;13.10;99.90;;;;;;5061607;28;20540;-71
2023/09/25 07:42:01;;;;;;;7.45;5.10;;;13.30;99.90;;;;;;5061106;28;20032;-72
2023/09/25 07:44:27;;;;;;;10.63;4.45;;;13.40;99.90;;;;;;5059986;28;20021;-72
2023/09/25 07:46:53;;;;;;;6.35;4.40;;;13.60;99.90;;;;;;5061599;28;20028;-72
2023/09/25 07:49:23;;;;;;;7.85;4.63;;;13.70;99.90;;;;;;5059457;28;20021;-71
2023/09/25 07:51:49;;;;;;;7.18;4.30;;;13.80;99.90;;;;;;5060745;28;20077;-71
2023/09/25 07:54:15;;;;;;;6.35;4.30;;;13.90;99.90;;;;;;5060997;28;20048;-71
2023/09/25 07:56:41;;;;;;;6.72;4.55;;;14.00;99.90;;;;;;5060900;28;20025;-72
2023/09/25 07:59:08;;;;;;;7.97;4.47;;;14.10;99.90;;;;;;5055060;28;20024;-71
2023/09/25 08:01:35;;;;;;;5.82;4.13;;;14.20;99.90;;;;;;5059545;28;20032;-72
2023/09/25 08:04:01;;;;;;;9.43;4.57;;;14.30;99.90;;;;;;5061059;28;20104;-72
2023/09/25 08:06:30;;;;;;;7.32;3.92;;;14.50;99.90;;;;;;5060223;28;20101;-73
2023/09/25 08:08:59;;;;;;;6.78;4.32;;;14.50;99.90;;;;;;5057487;28;20033;-73
2023/09/25 08:11:28;;;;;;;6.40;3.90;;;14.70;99.90;;;;;;5058653;28;20114;-71
2023/09/25 08:13:54;;;;;;;4.82;3.58;;;14.80;99.90;;;;;;5059569;28;20076;-71
2023/09/25 08:16:22;;;;;;;4.70;3.45;;;14.90;99.90;;;;;;5063191;28;20091;-69
2023/09/25 08:18:48;;;;;;;12.18;3.75;;;15.00;99.90;;;;;;5065159;28;20025;-70
2023/09/25 08:21:15;;;;;;;7.18;3.50;;;15.10;99.90;;;;;;5063964;28;20075;-73
2023/09/25 08:23:40;;;;;;;8.45;4.32;;;15.20;99.90;;;;;;5064928;28;20029;-71
2023/09/25 08:26:06;;;;;;;5.13;3.33;;;15.30;99.90;;;;;;5063797;28;20100;-70
2023/09/25 08:28:33;;;;;;;4.38;3.22;;;15.40;99.90;;;;;;5064439;28;20029;-71
2023/09/25 08:30:58;;;;;;;5.95;3.50;;;15.40;99.90;;;;;;5064661;28;20116;-71
2023/09/25 08:33:24;;;;;;;7.40;3.90;;;15.50;99.90;;;;;;5065057;28;20052;-71
2023/09/25 08:35:52;;;;;;;8.38;4.07;;;15.50;99.90;;;;;;5063427;28;20037;-72
2023/09/25 08:38:18;;;;;;;6.28;3.58;;;15.60;99.90;;;;;;5064022;28;20025;-72
2023/09/25 08:40:50;;;;;;;8.18;3.47;;;15.70;99.90;;;;;;5064997;28;20029;-70
2023/09/25 08:43:16;;;;;;;4.97;3.50;;;15.80;99.90;;;;;;5064632;28;20040;-72
2023/09/25 08:45:43;;;;;;;6.22;3.25;;;15.80;99.90;;;;;;5063810;28;20541;-72
2023/09/25 08:48:10;;;;;;;4.95;3.35;;;15.90;99.90;;;;;;5063217;28;20029;-71
2023/09/25 08:50:39;;;;;;;7.07;3.65;;;15.90;99.90;;;;;;5064681;28;20033;-70
2023/09/25 08:53:05;;;;;;;8.35;3.10;;;16.00;99.90;;;;;;5062081;28;20025;-71
2023/09/25 08:55:32;;;;;;;5.20;3.65;;;16.10;99.90;;;;;;5064138;28;20032;-73
2023/09/25 08:58:00;;;;;;;6.00;3.28;;;16.20;99.90;;;;;;5062531;28;20040;-73
2023/09/25 09:00:27;;;;;;;4.47;3.35;;;16.20;99.90;;;;;;5063209;28;20032;-72
2023/09/25 09:02:53;;;;;;;7.68;3.67;;;16.30;99.90;;;;;;5062983;28;20031;-72
2023/09/25 09:05:19;;;;;;;7.68;3.00;;;16.30;99.90;;;;;;5062907;28;20048;-72
2023/09/25 09:08:08;;;;;;;4.20;2.90;;;16.40;99.90;;;;;;5062405;28;21027;-70
2023/09/25 09:10:38;;;;;;;9.25;3.45;;;16.50;99.90;;;;;;5062294;28;20021;-71
2023/09/25 09:13:11;;;;;;;7.18;3.60;;;16.50;99.90;;;;;;5063747;28;20025;-70
2023/09/25 09:15:38;;;;;;;8.68;3.75;;;16.70;99.90;;;;;;5064381;28;20440;-71
2023/09/25 09:18:21;;;;;;;4.47;3.40;;;16.70;99.90;;;;;;5064211;28;20045;-69
2023/09/25 09:20:47;;;;;;;6.85;3.30;;;16.80;99.90;;;;;;5063468;28;20032;-70
2023/09/25 09:23:12;;;;;;;7.45;2.95;;;16.90;99.90;;;;;;5062888;28;20492;-72
2023/09/25 09:25:38;;;;;;;4.93;3.20;;;17.00;99.90;;;;;;5064175;28;20039;-72
2023/09/25 09:28:04;;;;;;;5.03;3.20;;;17.00;99.90;;;;;;5061180;28;20484;-72
2023/09/25 09:30:31;;;;;;;10.15;3.65;;;17.10;99.90;;;;;;5064341;28;20044;-73
2023/09/25 09:32:57;;;;;;;5.00;3.20;;;17.10;99.90;;;;;;5062658;28;20028;-72
2023/09/25 09:35:27;;;;;;;5.10;2.97;;;17.20;99.90;;;;;;5061894;28;20858;-73
2023/09/25 09:38:02;;;;;;;7.38;3.25;;;17.20;99.90;;;;;;5063010;28;20013;-72
2023/09/25 09:40:28;;;;;;;5.20;3.10;;;17.20;99.90;;;;;;5061557;28;20061;-73
2023/09/25 09:42:54;;;;;;;4.88;2.75;;;17.30;99.90;;;;;;5062001;28;20064;-69
2023/09/25 09:45:21;;;;;;;9.60;3.10;;;17.30;99.90;;;;;;5063699;28;20045;-71
2023/09/25 09:47:48;;;;;;;6.47;3.20;;;17.30;99.90;;;;;;5061774;28;20029;-71
2023/09/25 09:50:19;;;;;;;7.30;3.08;;;17.40;99.90;;;;;;5063488;28;20047;-70
2023/09/25 09:52:45;;;;;;;9.20;3.22;;;17.50;99.90;;;;;;5062973;28;20025;-72
2023/09/25 09:55:13;;;;;;;7.13;2.92;;;17.60;99.90;;;;;;5063355;28;20021;-70
2023/09/25 09:57:39;;;;;;;7.22;3.33;;;17.70;99.90;;;;;;5063147;28;20032;-69
2023/09/25 10:00:07;;;;;;;4.72;2.78;;;17.70;99.90;;;;;;5063104;28;20474;-71
2023/09/25 10:02:33;;;;;;;5.85;2.90;;;17.90;99.90;;;;;;5062529;28;20163;-71
2023/09/25 10:04:59;;;;;;;3.58;2.70;;;18.00;99.90;;;;;;5062989;28;20078;-71
2023/09/25 10:07:26;;;;;;;4.47;2.70;;;18.10;99.90;;;;;;5063117;28;20192;-70
2023/09/25 10:09:58;;;;;;;3.33;2.60;;;18.10;99.90;;;;;;5062567;28;20070;-69
2023/09/25 10:12:37;;;;;;;2.80;2.30;;;18.20;99.90;;;;;;5063179;28;20579;-71
2023/09/25 10:15:08;;;;;;;5.32;2.78;;;18.30;99.90;;;;;;5061967;28;20041;-71
2023/09/25 10:17:41;;;;;;;3.88;2.70;;;18.30;99.90;;;;;;5062408;28;20025;-72
2023/09/25 10:20:28;;;;;;;4.13;2.42;;;18.30;99.90;;;;;;5062725;28;20051;-70
2023/09/25 10:22:58;;;;;;;5.20;2.20;;;18.40;99.90;;;;;;5061040;28;20017;-71
2023/09/25 10:25:24;;;;;;;13.88;2.85;;;18.40;99.90;;;;;;5062842;28;20041;-71
2023/09/25 10:27:51;;;;;;;6.00;2.95;;;18.40;99.90;;;;;;5060926;28;20020;-71
2023/09/25 10:30:18;;;;;;;3.10;2.28;;;18.50;99.90;;;;;;5062753;28;20016;-70
2023/09/25 10:32:52;;;;;;;9.43;2.33;;;18.60;99.90;;;;;;5060794;28;20194;-71
2023/09/25 10:35:40;;;;;;;10.13;2.93;;;18.70;99.90;;;;;;5061169;28;20029;-70
2023/09/25 10:38:15;;;;;;;5.03;2.20;;;18.80;99.90;;;;;;5061990;28;20342;-69
2023/09/25 10:40:46;;;;;;;6.65;2.30;;;18.90;99.90;;;;;;5060693;28;20033;-72
2023/09/25 10:43:12;;;;;;;7.65;2.45;;;19.00;99.90;;;;;;5061678;28;20028;-72
2023/09/25 10:45:38;;;;;;;5.15;2.38;;;19.20;99.90;;;;;;5062375;28;20040;-70
2023/09/25 10:48:04;;;;;;;3.90;2.50;;;19.30;99.90;;;;;;5062448;28;20024;-71
2023/09/25 10:50:30;;;;;;;4.22;2.00;;;19.40;99.90;;;;;;5062231;28;20025;-69
2023/09/25 10:52:55;;;;;;;5.72;2.30;;;19.60;99.90;;;;;;5062282;28;20058;-69
2023/09/25 10:55:21;;;;;;;4.85;2.10;;;19.70;99.90;;;;;;5062124;28;20029;-71
2023/09/25 10:57:47;;;;;;;3.95;2.03;;;19.80;99.90;;;;;;5062178;28;20017;-71
2023/09/25 11:00:17;;;;;;;3.53;1.70;;;19.80;99.90;;;;;;5062152;28;20036;-71
2023/09/25 11:02:42;;;;;;;4.75;2.30;;;19.80;99.90;;;;;;5061748;28;20036;-71
2023/09/25 11:05:13;;;;;;;8.32;1.90;;;19.80;99.90;;;;;;5061796;28;20044;-71
2023/09/25 11:07:39;;;;;;;3.00;1.90;;;19.80;99.90;;;;;;5061684;28;20021;-69
2023/09/25 11:10:07;;;;;;;6.10;1.98;;;20.00;99.90;;;;;;5060870;28;20094;-76
2023/09/25 11:12:34;;;;;;;6.93;1.65;;;20.10;99.90;;;;;;5061525;28;20040;-74
2023/09/25 11:15:00;;;;;;;7.60;2.30;;;20.10;99.90;;;;;;5061830;28;20489;-70
2023/09/25 11:17:26;;;;;;;10.65;2.60;;;20.10;99.90;;;;;;5061699;28;20606;-70
2023/09/25 11:19:52;;;;;;;17.10;3.17;;;20.20;99.90;;;;;;5062160;28;20017;-71
2023/09/25 11:22:24;;;;;;;2.17;1.50;;;20.30;99.90;;;;;;5061865;28;20057;-71
2023/09/25 11:24:58;;;;;;;5.65;2.10;;;20.40;99.90;;;;;;5061800;28;20048;-71
2023/09/25 11:27:24;;;;;;;7.40;1.98;;;20.50;99.90;;;;;;5061984;28;20035;-69
2023/09/25 11:29:50;;;;;;;4.10;1.83;;;20.70;99.90;;;;;;5061973;28;20128;-70
2023/09/25 11:32:16;;;;;;;6.38;1.60;;;20.70;99.90;;;;;;5061128;28;20033;-70
2023/09/25 11:34:47;;;;;;;17.73;2.85;;;20.70;99.90;;;;;;5062084;28;20112;-70
2023/09/25 11:37:22;;;;;;;5.90;1.95;;;20.60;99.90;;;;;;5061197;28;20045;-71
2023/09/25 11:39:48;;;;;;;7.35;1.80;;;20.60;99.90;;;;;;5061056;28;20033;-69
2023/09/25 11:42:14;;;;;;;4.60;1.83;;;20.40;99.90;;;;;;5061987;28;20109;-70
2023/09/25 11:44:40;;;;;;;10.38;2.13;;;20.40;99.90;;;;;;5061074;28;20021;-70
2023/09/25 11:47:10;;;;;;;5.82;1.80;;;20.40;99.90;;;;;;5061580;28;20040;-71
2023/09/25 11:49:35;;;;;;;9.75;2.05;;;20.30;99.90;;;;;;5061629;28;20018;-72
2023/09/25 11:52:01;;;;;;;13.75;2.13;;;20.40;99.90;;;;;;5066666;28;20025;-70
2023/09/25 11:54:27;;;;;;;10.45;2.17;;;20.40;99.90;;;;;;5068602;28;20500;-72
2023/09/25 11:56:53;;;;;;;8.98;2.10;;;20.50;99.90;;;;;;5067905;28;20013;-70
2023/09/25 11:59:18;;;;;;;11.07;2.72;;;20.60;99.90;;;;;;5068046;28;20035;-68
2023/09/25 12:01:45;;;;;;;6.63;2.05;;;20.60;99.90;;;;;;5067025;28;20119;-71
2023/09/25 12:04:12;;;;;;;6.00;2.20;;;20.60;99.90;;;;;;5067080;28;20025;-71
2023/09/25 12:06:38;;;;;;;9.35;2.00;;;20.60;99.90;;;;;;5066595;28;20032;-72
2023/09/25 12:09:11;;;;;;;6.85;2.10;;;20.60;99.90;;;;;;5066686;28;20024;-73
2023/09/25 12:11:40;;;;;;;3.97;2.08;;;20.50;99.90;;;;;;5068205;28;20083;-71
2023/09/25 12:14:06;;;;;;;3.70;1.95;;;20.50;99.90;;;;;;5065734;28;20456;-71
2023/09/25 12:16:35;;;;;;;13.88;2.20;;;20.50;99.90;;;;;;5068414;28;20051;-70
2023/09/25 12:19:00;;;;;;;11.23;2.00;;;20.60;99.90;;;;;;5066590;28;20440;-69
2023/09/25 12:21:26;;;;;;;7.10;1.80;;;20.70;99.90;;;;;;5067449;28;20029;-70
2023/09/25 12:23:52;;;;;;;13.02;2.47;;;20.70;99.90;;;;;;5068260;28;20114;-72
2023/09/25 12:26:17;;;;;;;7.20;2.17;;;20.70;99.90;;;;;;5068064;28;20098;-72
2023/09/25 12:28:43;;;;;;;19.70;2.42;;;20.70;99.90;;;;;;5067800;28;20028;-71
2023/09/25 12:31:09;;;;;;;4.95;1.60;;;20.60;99.90;;;;;;5067801;28;20029;-71
2023/09/25 12:33:34;;;;;;;6.13;2.03;;;20.60;99.90;;;;;;5067338;28;20020;-71
2023/09/25 12:36:00;;;;;;;10.18;2.50;;;20.50;99.90;;;;;;5067772;28;20068;-72
2023/09/25 12:38:26;;;;;;;6.10;2.30;;;20.60;99.90;;;;;;5067955;28;20120;-72
2023/09/25 12:40:52;;;;;;;6.65;2.15;;;20.60;99.90;;;;;;5066846;28;20060;-73
2023/09/25 12:43:18;;;;;;;5.05;1.90;;;20.70;99.90;;;;;;5067621;28;20032;-71